sensor_id;sensor_type;location;lat;lon;timestamp;pressure;altitude;pressure_sealevel;temperature;humidity
17649;BME280;8943;51.110;-4.158;2023-03-04T00:01:30;102708.63;;;10.72;41.62
17649;BME280;8943;51.110;-4.158;2023-03-04T00:03:58;102704.16;;;10.73;41.67
17649;BME280;8943;51.110;-4.158;2023-03-04T00:06:26;102700.59;;;10.74;41.64
17649;BME280;8943;51.110;-4.158;2023-03-04T00:08:54;102701.50;;;10.73;41.70
17649;BME280;8943;51.110;-4.158;2023-03-04T00:11:23;102698.91;;;10.71;41.73
17649;BME280;8943;51.110;-4.158;2023-03-04T00:13:52;102697.25;;;10.69;41.81
17649;BME280;8943;51.110;-4.158;2023-03-04T00:16:20;102691.84;;;10.70;41.79
17649;BME280;8943;51.110;-4.158;2023-03-04T00:18:48;102698.97;;;10.70;41.99
17649;BME280;8943;51.110;-4.158;2023-03-04T00:21:16;102698.16;;;10.68;42.02
17649;BME280;8943;51.110;-4.158;2023-03-04T00:23:44;102701.69;;;10.68;41.88
17649;BME280;8943;51.110;-4.158;2023-03-04T00:26:12;102706.16;;;10.68;42.15
17649;BME280;8943;51.110;-4.158;2023-03-04T00:28:40;102699.09;;;10.67;42.05
17649;BME280;8943;51.110;-4.158;2023-03-04T00:31:10;102701.94;;;10.62;41.97
17649;BME280;8943;51.110;-4.158;2023-03-04T00:33:39;102701.09;;;10.62;42.02
17649;BME280;8943;51.110;-4.158;2023-03-04T00:36:09;102703.81;;;10.60;42.21
17649;BME280;8943;51.110;-4.158;2023-03-04T00:38:37;102705.66;;;10.58;42.16
17649;BME280;8943;51.110;-4.158;2023-03-04T00:41:05;102717.25;;;10.57;42.38
17649;BME280;8943;51.110;-4.158;2023-03-04T00:43:33;102709.34;;;10.55;42.54
17649;BME280;8943;51.110;-4.158;2023-03-04T00:46:01;102706.69;;;10.55;42.22
17649;BME280;8943;51.110;-4.158;2023-03-04T00:48:30;102712.94;;;10.54;42.48
17649;BME280;8943;51.110;-4.158;2023-03-04T00:50:58;102704.94;;;10.54;42.47
17649;BME280;8943;51.110;-4.158;2023-03-04T00:53:26;102720.06;;;10.54;42.82
17649;BME280;8943;51.110;-4.158;2023-03-04T00:55:54;102713.75;;;10.56;42.68
17649;BME280;8943;51.110;-4.158;2023-03-04T00:58:22;102729.72;;;10.56;42.70
17649;BME280;8943;51.110;-4.158;2023-03-04T01:00:50;102720.78;;;10.57;42.35
17649;BME280;8943;51.110;-4.158;2023-03-04T01:03:18;102718.97;;;10.60;42.64
17649;BME280;8943;51.110;-4.158;2023-03-04T01:05:47;102715.34;;;10.61;42.62
17649;BME280;8943;51.110;-4.158;2023-03-04T01:08:15;102714.34;;;10.63;42.63
17649;BME280;8943;51.110;-4.158;2023-03-04T01:10:43;102717.81;;;10.65;42.64
17649;BME280;8943;51.110;-4.158;2023-03-04T01:13:11;102711.47;;;10.68;42.61
17649;BME280;8943;51.110;-4.158;2023-03-04T01:15:39;102706.16;;;10.68;42.66
17649;BME280;8943;51.110;-4.158;2023-03-04T01:18:07;102707.91;;;10.69;42.42
17649;BME280;8943;51.110;-4.158;2023-03-04T01:20:35;102706.03;;;10.71;42.38
17649;BME280;8943;51.110;-4.158;2023-03-04T01:23:04;102701.56;;;10.71;42.36
17649;BME280;8943;51.110;-4.158;2023-03-04T01:25:32;102705.00;;;10.73;42.37
17649;BME280;8943;51.110;-4.158;2023-03-04T01:28:00;102704.16;;;10.73;42.48
17649;BME280;8943;51.110;-4.158;2023-03-04T01:30:28;102697.97;;;10.72;42.80
17649;BME280;8943;51.110;-4.158;2023-03-04T01:32:56;102710.44;;;10.72;42.54
17649;BME280;8943;51.110;-4.158;2023-03-04T01:35:25;102707.75;;;10.72;42.51
17649;BME280;8943;51.110;-4.158;2023-03-04T01:37:53;102701.50;;;10.73;42.54
17649;BME280;8943;51.110;-4.158;2023-03-04T01:40:22;102693.50;;;10.73;42.44
17649;BME280;8943;51.110;-4.158;2023-03-04T01:42:50;102698.81;;;10.73;42.67
17649;BME280;8943;51.110;-4.158;2023-03-04T01:45:19;102694.44;;;10.72;42.50
17649;BME280;8943;51.110;-4.158;2023-03-04T01:47:48;102693.50;;;10.73;42.61
17649;BME280;8943;51.110;-4.158;2023-03-04T01:50:21;102692.63;;;10.72;42.50
17649;BME280;8943;51.110;-4.158;2023-03-04T01:52:50;102688.22;;;10.71;42.54
17649;BME280;8943;51.110;-4.158;2023-03-04T01:55:21;102685.56;;;10.71;42.68
17649;BME280;8943;51.110;-4.158;2023-03-04T01:57:51;102692.63;;;10.72;42.52
17649;BME280;8943;51.110;-4.158;2023-03-04T02:00:26;102681.25;;;10.69;42.60
17649;BME280;8943;51.110;-4.158;2023-03-04T02:02:58;102683.84;;;10.70;42.72
17649;BME280;8943;51.110;-4.158;2023-03-04T02:05:27;102685.63;;;10.70;42.60
17649;BME280;8943;51.110;-4.158;2023-03-04T02:07:56;102687.44;;;10.69;43.03
17649;BME280;8943;51.110;-4.158;2023-03-04T02:10:25;102679.44;;;10.69;42.89
17649;BME280;8943;51.110;-4.158;2023-03-04T02:12:55;102685.56;;;10.71;42.88
17649;BME280;8943;51.110;-4.158;2023-03-04T02:15:23;102676.63;;;10.72;42.80
17649;BME280;8943;51.110;-4.158;2023-03-04T02:17:51;102670.34;;;10.73;42.96
17649;BME280;8943;51.110;-4.158;2023-03-04T02:20:27;102666.78;;;10.74;43.01
17649;BME280;8943;51.110;-4.158;2023-03-04T02:23:03;102674.69;;;10.76;43.23
17649;BME280;8943;51.110;-4.158;2023-03-04T02:25:38;102666.72;;;10.76;42.89
17649;BME280;8943;51.110;-4.158;2023-03-04T02:28:11;102672.97;;;10.75;42.75
17649;BME280;8943;51.110;-4.158;2023-03-04T02:30:39;102667.69;;;10.73;43.09
17649;BME280;8943;51.110;-4.158;2023-03-04T02:33:13;102665.09;;;10.72;42.69
17649;BME280;8943;51.110;-4.158;2023-03-04T02:35:42;102666.81;;;10.73;42.95
17649;BME280;8943;51.110;-4.158;2023-03-04T02:38:10;102670.31;;;10.75;43.04
17649;BME280;8943;51.110;-4.158;2023-03-04T02:40:41;102666.63;;;10.77;43.00
17649;BME280;8943;51.110;-4.158;2023-03-04T02:43:11;102667.44;;;10.79;43.07
17649;BME280;8943;51.110;-4.158;2023-03-04T02:45:41;102665.66;;;10.80;42.94
17649;BME280;8943;51.110;-4.158;2023-03-04T02:48:10;102665.66;;;10.80;42.81
17649;BME280;8943;51.110;-4.158;2023-03-04T02:50:41;102664.78;;;10.79;42.76
17649;BME280;8943;51.110;-4.158;2023-03-04T02:53:10;102664.72;;;10.81;42.77
17649;BME280;8943;51.110;-4.158;2023-03-04T02:55:38;102665.56;;;10.81;42.89
17649;BME280;8943;51.110;-4.158;2023-03-04T02:58:08;102662.81;;;10.83;42.81
17649;BME280;8943;51.110;-4.158;2023-03-04T03:00:38;102655.66;;;10.85;42.78
17649;BME280;8943;51.110;-4.158;2023-03-04T03:03:07;102660.91;;;10.87;42.61
17649;BME280;8943;51.110;-4.158;2023-03-04T03:05:35;102667.97;;;10.88;42.95
17649;BME280;8943;51.110;-4.158;2023-03-04T03:08:04;102658.09;;;10.90;43.20
17649;BME280;8943;51.110;-4.158;2023-03-04T03:10:33;102656.19;;;10.93;42.65
17649;BME280;8943;51.110;-4.158;2023-03-04T03:13:01;102667.56;;;10.97;42.84
17649;BME280;8943;51.110;-4.158;2023-03-04T03:15:29;102663.16;;;10.96;42.72
17649;BME280;8943;51.110;-4.158;2023-03-04T03:17:58;102665.75;;;10.97;42.95
17649;BME280;8943;51.110;-4.158;2023-03-04T03:20:26;102663.91;;;10.99;42.80
17649;BME280;8943;51.110;-4.158;2023-03-04T03:22:54;102665.63;;;11.00;42.51
17649;BME280;8943;51.110;-4.158;2023-03-04T03:25:22;102663.91;;;10.99;42.57
17649;BME280;8943;51.110;-4.158;2023-03-04T03:27:50;102669.25;;;10.99;42.94
17649;BME280;8943;51.110;-4.158;2023-03-04T03:30:18;102670.19;;;10.98;42.52
17649;BME280;8943;51.110;-4.158;2023-03-04T03:32:46;102673.75;;;10.97;42.66
17649;BME280;8943;51.110;-4.158;2023-03-04T03:35:16;102671.25;;;10.94;42.95
17649;BME280;8943;51.110;-4.158;2023-03-04T03:37:44;102669.44;;;10.95;42.80
17649;BME280;8943;51.110;-4.158;2023-03-04T03:40:14;102671.09;;;10.97;42.77
17649;BME280;8943;51.110;-4.158;2023-03-04T03:42:42;102669.25;;;10.99;42.82
17649;BME280;8943;51.110;-4.158;2023-03-04T03:45:10;102676.31;;;11.00;42.70
17649;BME280;8943;51.110;-4.158;2023-03-04T03:47:38;102681.50;;;11.03;42.65
17649;BME280;8943;51.110;-4.158;2023-03-04T03:50:07;102674.41;;;11.02;42.73
17649;BME280;8943;51.110;-4.158;2023-03-04T03:52:37;102669.09;;;11.02;42.78
17649;BME280;8943;51.110;-4.158;2023-03-04T03:55:05;102665.56;;;11.02;42.96
17649;BME280;8943;51.110;-4.158;2023-03-04T03:57:33;102663.75;;;11.02;42.78
17649;BME280;8943;51.110;-4.158;2023-03-04T04:00:01;102663.72;;;11.04;42.79
17649;BME280;8943;51.110;-4.158;2023-03-04T04:02:29;102669.91;;;11.04;42.74
17649;BME280;8943;51.110;-4.158;2023-03-04T04:04:57;102665.34;;;11.06;42.66
17649;BME280;8943;51.110;-4.158;2023-03-04T04:07:26;102668.03;;;11.06;42.85
17649;BME280;8943;51.110;-4.158;2023-03-04T04:09:55;102665.34;;;11.06;42.64
17649;BME280;8943;51.110;-4.158;2023-03-04T04:12:24;102665.34;;;11.06;42.67
17649;BME280;8943;51.110;-4.158;2023-03-04T04:14:52;102661.91;;;11.04;42.79
17649;BME280;8943;51.110;-4.158;2023-03-04T04:17:20;102659.22;;;11.04;42.64
17649;BME280;8943;51.110;-4.158;2023-03-04T04:19:48;102658.41;;;11.02;42.85
17649;BME280;8943;51.110;-4.158;2023-03-04T04:22:17;102656.69;;;11.01;42.78
17649;BME280;8943;51.110;-4.158;2023-03-04T04:24:46;102665.50;;;11.03;42.73
17649;BME280;8943;51.110;-4.158;2023-03-04T04:27:16;102665.50;;;11.03;42.54
17649;BME280;8943;51.110;-4.158;2023-03-04T04:29:44;102666.41;;;11.02;42.83
17649;BME280;8943;51.110;-4.158;2023-03-04T04:32:12;102656.69;;;11.01;42.50
17649;BME280;8943;51.110;-4.158;2023-03-04T04:34:40;102660.31;;;11.00;43.07
17649;BME280;8943;51.110;-4.158;2023-03-04T04:37:08;102655.94;;;10.98;42.86
17649;BME280;8943;51.110;-4.158;2023-03-04T04:39:36;102661.28;;;10.98;42.75
17649;BME280;8943;51.110;-4.158;2023-03-04T04:42:04;102655.25;;;10.94;42.83
17649;BME280;8943;51.110;-4.158;2023-03-04T04:44:34;102660.69;;;10.91;43.16
17649;BME280;8943;51.110;-4.158;2023-03-04T04:47:04;102656.38;;;10.89;43.09
17649;BME280;8943;51.110;-4.158;2023-03-04T04:49:32;102659.06;;;10.89;43.46
17649;BME280;8943;51.110;-4.158;2023-03-04T04:52:00;102657.38;;;10.86;43.06
17649;BME280;8943;51.110;-4.158;2023-03-04T04:54:29;102654.78;;;10.85;43.29
17649;BME280;8943;51.110;-4.158;2023-03-04T04:56:57;102648.63;;;10.82;43.14
17649;BME280;8943;51.110;-4.158;2023-03-04T04:59:25;102647.75;;;10.82;43.26
17649;BME280;8943;51.110;-4.158;2023-03-04T05:01:54;102650.50;;;10.80;43.37
17649;BME280;8943;51.110;-4.158;2023-03-04T05:04:22;102652.31;;;10.80;43.28
17649;BME280;8943;51.110;-4.158;2023-03-04T05:06:50;102647.97;;;10.77;43.36
17649;BME280;8943;51.110;-4.158;2023-03-04T05:09:18;102656.03;;;10.76;43.55
17649;BME280;8943;51.110;-4.158;2023-03-04T05:11:48;102655.09;;;10.77;43.57
17649;BME280;8943;51.110;-4.158;2023-03-04T05:14:17;102649.75;;;10.77;43.63
17649;BME280;8943;51.110;-4.158;2023-03-04T05:16:45;102653.28;;;10.77;43.64
17649;BME280;8943;51.110;-4.158;2023-03-04T05:19:14;102650.63;;;10.77;43.99
17649;BME280;8943;51.110;-4.158;2023-03-04T05:21:42;102655.06;;;10.78;43.84
17649;BME280;8943;51.110;-4.158;2023-03-04T05:24:10;102648.78;;;10.79;43.70
17649;BME280;8943;51.110;-4.158;2023-03-04T05:26:38;102654.97;;;10.80;43.97
17649;BME280;8943;51.110;-4.158;2023-03-04T05:29:06;102667.38;;;10.81;43.96
17649;BME280;8943;51.110;-4.158;2023-03-04T05:31:34;102659.44;;;10.79;43.79
17649;BME280;8943;51.110;-4.158;2023-03-04T05:34:02;102664.78;;;10.79;43.81
17649;BME280;8943;51.110;-4.158;2023-03-04T05:36:31;102670.97;;;10.80;43.92
17649;BME280;8943;51.110;-4.158;2023-03-04T05:38:59;102670.13;;;10.79;44.22
17649;BME280;8943;51.110;-4.158;2023-03-04T05:41:27;102668.44;;;10.77;43.82
17649;BME280;8943;51.110;-4.158;2023-03-04T05:43:55;102664.81;;;10.78;43.79
17649;BME280;8943;51.110;-4.158;2023-03-04T05:46:24;102668.44;;;10.77;44.13
17649;BME280;8943;51.110;-4.158;2023-03-04T05:48:52;102660.44;;;10.77;43.96
17649;BME280;8943;51.110;-4.158;2023-03-04T05:51:21;102659.56;;;10.76;44.18
17649;BME280;8943;51.110;-4.158;2023-03-04T05:53:51;102663.09;;;10.77;44.33
17649;BME280;8943;51.110;-4.158;2023-03-04T05:56:19;102663.09;;;10.77;44.15
17649;BME280;8943;51.110;-4.158;2023-03-04T05:58:47;102670.22;;;10.76;44.02
17649;BME280;8943;51.110;-4.158;2023-03-04T06:01:15;102672.97;;;10.75;44.09
17649;BME280;8943;51.110;-4.158;2023-03-04T06:03:44;102665.75;;;10.77;44.18
17649;BME280;8943;51.110;-4.158;2023-03-04T06:06:14;102671.09;;;10.77;44.23
17649;BME280;8943;51.110;-4.158;2023-03-04T06:08:42;102666.59;;;10.79;43.81
17649;BME280;8943;51.110;-4.158;2023-03-04T06:11:12;102671.84;;;10.80;43.94
17649;BME280;8943;51.110;-4.158;2023-03-04T06:13:40;102675.38;;;10.81;43.87
17649;BME280;8943;51.110;-4.158;2023-03-04T06:16:08;102675.38;;;10.81;44.12
17649;BME280;8943;51.110;-4.158;2023-03-04T06:18:37;102671.75;;;10.82;44.23
17649;BME280;8943;51.110;-4.158;2023-03-04T06:21:05;102673.56;;;10.81;44.02
17649;BME280;8943;51.110;-4.158;2023-03-04T06:23:33;102671.75;;;10.82;43.98
17649;BME280;8943;51.110;-4.158;2023-03-04T06:26:01;102672.63;;;10.82;44.22
17649;BME280;8943;51.110;-4.158;2023-03-04T06:28:31;102668.31;;;10.80;43.99
17649;BME280;8943;51.110;-4.158;2023-03-04T06:30:59;102676.22;;;10.81;44.04
17649;BME280;8943;51.110;-4.158;2023-03-04T06:33:27;102676.22;;;10.81;44.00
17649;BME280;8943;51.110;-4.158;2023-03-04T06:35:56;102675.28;;;10.82;44.31
17649;BME280;8943;51.110;-4.158;2023-03-04T06:38:25;102678.03;;;10.81;44.14
17649;BME280;8943;51.110;-4.158;2023-03-04T06:40:55;102676.38;;;10.78;44.16
17649;BME280;8943;51.110;-4.158;2023-03-04T06:43:23;102682.59;;;10.79;44.05
17649;BME280;8943;51.110;-4.158;2023-03-04T06:45:52;102677.44;;;10.74;43.99
17649;BME280;8943;51.110;-4.158;2023-03-04T06:48:20;102677.50;;;10.73;43.69
17649;BME280;8943;51.110;-4.158;2023-03-04T06:50:48;102675.75;;;10.72;44.01
17649;BME280;8943;51.110;-4.158;2023-03-04T06:53:16;102688.16;;;10.73;44.17
17649;BME280;8943;51.110;-4.158;2023-03-04T06:55:44;102685.56;;;10.71;44.29
17649;BME280;8943;51.110;-4.158;2023-03-04T06:58:13;102683.75;;;10.72;44.26
17649;BME280;8943;51.110;-4.158;2023-03-04T07:00:43;102689.03;;;10.73;44.52
17649;BME280;8943;51.110;-4.158;2023-03-04T07:03:12;102685.50;;;10.73;44.41
17649;BME280;8943;51.110;-4.158;2023-03-04T07:05:41;102688.03;;;10.76;44.05
17649;BME280;8943;51.110;-4.158;2023-03-04T07:08:09;102688.81;;;10.78;44.12
17649;BME280;8943;51.110;-4.158;2023-03-04T07:10:37;102689.56;;;10.81;44.18
17649;BME280;8943;51.110;-4.158;2023-03-04T07:13:05;102698.31;;;10.85;44.02
17649;BME280;8943;51.110;-4.158;2023-03-04T07:15:33;102691.19;;;10.86;44.22
17649;BME280;8943;51.110;-4.158;2023-03-04T07:18:02;102698.03;;;10.91;44.09
17649;BME280;8943;51.110;-4.158;2023-03-04T07:20:31;102704.13;;;10.95;43.89
17649;BME280;8943;51.110;-4.158;2023-03-04T07:22:59;102709.28;;;10.98;43.89
17649;BME280;8943;51.110;-4.158;2023-03-04T07:25:27;102708.31;;;11.00;43.64
17649;BME280;8943;51.110;-4.158;2023-03-04T07:27:55;102706.50;;;11.01;43.73
17649;BME280;8943;51.110;-4.158;2023-03-04T07:30:23;102706.38;;;11.04;43.66
17649;BME280;8943;51.110;-4.158;2023-03-04T07:32:52;102715.25;;;11.04;43.64
17649;BME280;8943;51.110;-4.158;2023-03-04T07:35:20;102714.41;;;11.04;43.96
17649;BME280;8943;51.110;-4.158;2023-03-04T07:37:49;102724.03;;;11.06;43.56
17649;BME280;8943;51.110;-4.158;2023-03-04T07:40:17;102726.66;;;11.08;43.56
17649;BME280;8943;51.110;-4.158;2023-03-04T07:42:48;102725.66;;;11.11;43.77
17649;BME280;8943;51.110;-4.158;2023-03-04T07:45:16;102730.88;;;11.14;43.32
17649;BME280;8943;51.110;-4.158;2023-03-04T07:47:44;102728.97;;;11.16;43.39
17649;BME280;8943;51.110;-4.158;2023-03-04T07:50:13;102729.81;;;11.18;43.20
17649;BME280;8943;51.110;-4.158;2023-03-04T07:52:45;102735.94;;;11.20;43.50
17649;BME280;8943;51.110;-4.158;2023-03-04T07:55:15;102730.50;;;11.21;43.32
17649;BME280;8943;51.110;-4.158;2023-03-04T07:57:44;102738.50;;;11.21;43.29
17649;BME280;8943;51.110;-4.158;2023-03-04T08:00:14;102741.25;;;11.20;43.20
17649;BME280;8943;51.110;-4.158;2023-03-04T08:02:43;102745.56;;;11.22;43.30
17649;BME280;8943;51.110;-4.158;2023-03-04T08:05:11;102749.06;;;11.24;43.14
17649;BME280;8943;51.110;-4.158;2023-03-04T08:07:39;102755.16;;;11.28;43.29
17649;BME280;8943;51.110;-4.158;2023-03-04T08:10:07;102754.13;;;11.30;42.99
17649;BME280;8943;51.110;-4.158;2023-03-04T08:12:37;102750.31;;;11.36;43.05
17649;BME280;8943;51.110;-4.158;2023-03-04T08:15:06;102747.44;;;11.41;43.27
17649;BME280;8943;51.110;-4.158;2023-03-04T08:17:35;102754.38;;;11.45;42.73
17649;BME280;8943;51.110;-4.158;2023-03-04T08:20:03;102757.78;;;11.48;43.07
17649;BME280;8943;51.110;-4.158;2023-03-04T08:22:31;102756.72;;;11.52;42.73
17649;BME280;8943;51.110;-4.158;2023-03-04T08:24:59;102762.72;;;11.57;42.83
17649;BME280;8943;51.110;-4.158;2023-03-04T08:27:27;102768.66;;;11.64;42.63
17649;BME280;8943;51.110;-4.158;2023-03-04T08:29:57;102764.91;;;11.68;42.54
17649;BME280;8943;51.110;-4.158;2023-03-04T08:32:25;102762.16;;;11.70;42.45
17649;BME280;8943;51.110;-4.158;2023-03-04T08:34:53;102767.38;;;11.73;42.80
17649;BME280;8943;51.110;-4.158;2023-03-04T08:37:22;102770.03;;;11.73;42.50
17649;BME280;8943;51.110;-4.158;2023-03-04T08:39:50;102770.81;;;11.75;42.33
17649;BME280;8943;51.110;-4.158;2023-03-04T08:42:18;102770.78;;;11.76;42.27
17649;BME280;8943;51.110;-4.158;2023-03-04T08:44:46;102772.41;;;11.79;42.42
17649;BME280;8943;51.110;-4.158;2023-03-04T08:47:15;102769.66;;;11.82;41.89
17649;BME280;8943;51.110;-4.158;2023-03-04T08:49:43;102769.50;;;11.85;42.10
17649;BME280;8943;51.110;-4.158;2023-03-04T08:52:11;102764.03;;;11.88;42.20
17649;BME280;8943;51.110;-4.158;2023-03-04T08:54:40;102762.00;;;11.93;42.03
17649;BME280;8943;51.110;-4.158;2023-03-04T08:57:07;102771.53;;;11.99;42.24
17649;BME280;8943;51.110;-4.158;2023-03-04T08:59:35;102766.84;;;12.04;41.93
17649;BME280;8943;51.110;-4.158;2023-03-04T09:02:04;102769.28;;;12.08;41.79
17649;BME280;8943;51.110;-4.158;2023-03-04T09:04:33;102769.16;;;12.11;41.77
17649;BME280;8943;51.110;-4.158;2023-03-04T09:07:02;102769.00;;;12.15;41.60
17649;BME280;8943;51.110;-4.158;2023-03-04T09:09:30;102766.31;;;12.15;41.96
17649;BME280;8943;51.110;-4.158;2023-03-04T09:11:58;102767.13;;;12.17;41.81
17649;BME280;8943;51.110;-4.158;2023-03-04T09:14:26;102766.06;;;12.21;41.62
17649;BME280;8943;51.110;-4.158;2023-03-04T09:16:54;102770.47;;;12.22;41.68
17649;BME280;8943;51.110;-4.158;2023-03-04T09:19:22;102774.06;;;12.21;41.66
17649;BME280;8943;51.110;-4.158;2023-03-04T09:21:51;102766.06;;;12.21;41.90
17649;BME280;8943;51.110;-4.158;2023-03-04T09:24:21;102752.69;;;12.21;41.67
17649;BME280;8943;51.110;-4.158;2023-03-04T09:26:49;102760.75;;;12.19;41.27
17649;BME280;8943;51.110;-4.158;2023-03-04T09:29:18;102761.63;;;12.20;41.50
17649;BME280;8943;51.110;-4.158;2023-03-04T09:31:46;102758.81;;;12.23;41.27
17649;BME280;8943;51.110;-4.158;2023-03-04T09:34:14;102767.47;;;12.28;41.15
17649;BME280;8943;51.110;-4.158;2023-03-04T09:36:42;102758.38;;;12.32;41.22
17649;BME280;8943;51.110;-4.158;2023-03-04T09:39:11;102757.13;;;12.39;41.39
17649;BME280;8943;51.110;-4.158;2023-03-04T09:41:42;102754.22;;;12.44;40.80
17649;BME280;8943;51.110;-4.158;2023-03-04T09:44:20;102763.94;;;12.46;40.75
17649;BME280;8943;51.110;-4.158;2023-03-04T09:46:49;102763.63;;;12.52;40.96
17649;BME280;8943;51.110;-4.158;2023-03-04T09:49:20;102752.91;;;12.52;40.93
17649;BME280;8943;51.110;-4.158;2023-03-04T09:51:54;102758.13;;;12.55;40.90
17649;BME280;8943;51.110;-4.158;2023-03-04T09:54:40;102757.09;;;12.58;40.80
17649;BME280;8943;51.110;-4.158;2023-03-04T09:57:23;102753.56;;;12.57;40.55
17649;BME280;8943;51.110;-4.158;2023-03-04T10:00:03;102758.03;;;12.57;40.49
17649;BME280;8943;51.110;-4.158;2023-03-04T10:02:41;102758.13;;;12.55;40.66
17649;BME280;8943;51.110;-4.158;2023-03-04T10:05:14;102758.28;;;12.52;40.63
17649;BME280;8943;51.110;-4.158;2023-03-04T10:07:46;102760.94;;;12.52;40.21
17649;BME280;8943;51.110;-4.158;2023-03-04T10:10:21;102756.53;;;12.51;39.87
17649;BME280;8943;51.110;-4.158;2023-03-04T10:12:52;102749.75;;;12.44;40.07
17649;BME280;8943;51.110;-4.158;2023-03-04T10:15:27;102756.84;;;12.45;40.03
17649;BME280;8943;51.110;-4.158;2023-03-04T10:18:01;102746.00;;;12.48;40.32
17649;BME280;8943;51.110;-4.158;2023-03-04T10:20:45;102749.25;;;12.55;39.96
17649;BME280;8943;51.110;-4.158;2023-03-04T10:23:18;102746.34;;;12.59;40.07
17649;BME280;8943;51.110;-4.158;2023-03-04T10:25:49;102753.09;;;12.67;39.82
17649;BME280;8943;51.110;-4.158;2023-03-04T10:28:23;102755.31;;;12.76;40.15
17649;BME280;8943;51.110;-4.158;2023-03-04T10:30:57;102750.53;;;12.82;40.15
17649;BME280;8943;51.110;-4.158;2023-03-04T10:33:28;102754.69;;;12.88;39.77
17649;BME280;8943;51.110;-4.158;2023-03-04T10:36:01;102750.22;;;12.88;39.34
17649;BME280;8943;51.110;-4.158;2023-03-04T10:38:30;102746.66;;;12.88;39.29
17649;BME280;8943;51.110;-4.158;2023-03-04T10:41:01;102742.25;;;12.87;39.51
17649;BME280;8943;51.110;-4.158;2023-03-04T10:43:39;102739.44;;;12.90;39.42
17649;BME280;8943;51.110;-4.158;2023-03-04T10:46:10;102732.13;;;12.94;39.40
17649;BME280;8943;51.110;-4.158;2023-03-04T10:48:40;102738.97;;;12.99;39.19
17649;BME280;8943;51.110;-4.158;2023-03-04T10:51:12;102742.19;;;13.06;39.31
17649;BME280;8943;51.110;-4.158;2023-03-04T10:53:46;102734.63;;;13.14;39.12
17649;BME280;8943;51.110;-4.158;2023-03-04T10:56:37;102735.06;;;13.24;38.84
17649;BME280;8943;51.110;-4.158;2023-03-04T10:59:32;102742.00;;;13.28;38.71
17649;BME280;8943;51.110;-4.158;2023-03-04T11:02:13;102737.50;;;13.28;38.76
17649;BME280;8943;51.110;-4.158;2023-03-04T11:04:41;102740.94;;;13.30;38.55
17649;BME280;8943;51.110;-4.158;2023-03-04T11:07:10;102738.34;;;13.29;38.39
17649;BME280;8943;51.110;-4.158;2023-03-04T11:09:38;102739.22;;;13.29;38.60
17649;BME280;8943;51.110;-4.158;2023-03-04T11:12:12;102738.25;;;13.30;38.34
17649;BME280;8943;51.110;-4.158;2023-03-04T11:14:44;102736.78;;;13.25;38.05
17649;BME280;8943;51.110;-4.158;2023-03-04T11:17:20;102730.78;;;13.20;38.32
17649;BME280;8943;51.110;-4.158;2023-03-04T11:19:53;102728.19;;;13.18;38.22
17649;BME280;8943;51.110;-4.158;2023-03-04T11:22:24;102732.69;;;13.18;38.17
17649;BME280;8943;51.110;-4.158;2023-03-04T11:25:00;102737.84;;;13.21;37.98
17649;BME280;8943;51.110;-4.158;2023-03-04T11:27:38;102729.69;;;13.24;37.90
17649;BME280;8943;51.110;-4.158;2023-03-04T11:30:25;102725.75;;;13.31;38.04
17649;BME280;8943;51.110;-4.158;2023-03-04T11:33:02;102731.66;;;13.37;38.03
17649;BME280;8943;51.110;-4.158;2023-03-04T11:35:34;102720.75;;;13.40;37.90
17649;BME280;8943;51.110;-4.158;2023-03-04T11:38:12;102712.47;;;13.45;38.21
17649;BME280;8943;51.110;-4.158;2023-03-04T11:40:46;102715.78;;;13.50;37.90
17649;BME280;8943;51.110;-4.158;2023-03-04T11:43:21;102711.84;;;13.57;38.00
17649;BME280;8943;51.110;-4.158;2023-03-04T11:46:04;102710.28;;;13.69;37.79
17649;BME280;8943;51.110;-4.158;2023-03-04T11:48:44;102701.66;;;13.80;37.46
17649;BME280;8943;51.110;-4.158;2023-03-04T11:51:21;102704.78;;;13.88;37.43
17649;BME280;8943;51.110;-4.158;2023-03-04T11:54:01;102698.31;;;13.92;37.35
17649;BME280;8943;51.110;-4.158;2023-03-04T11:56:35;102692.69;;;13.97;37.50
17649;BME280;8943;51.110;-4.158;2023-03-04T11:59:34;102699.50;;;14.02;37.39
17649;BME280;8943;51.110;-4.158;2023-03-04T12:02:14;102698.41;;;14.06;37.15
17649;BME280;8943;51.110;-4.158;2023-03-04T12:05:11;102695.63;;;14.08;36.95
17649;BME280;8943;51.110;-4.158;2023-03-04T12:08:06;102691.13;;;14.08;37.01
17649;BME280;8943;51.110;-4.158;2023-03-04T12:10:38;102691.22;;;14.07;37.14
17649;BME280;8943;51.110;-4.158;2023-03-04T12:13:24;102687.47;;;14.09;37.00
17649;BME280;8943;51.110;-4.158;2023-03-04T12:16:06;102691.72;;;14.13;37.12
17649;BME280;8943;51.110;-4.158;2023-03-04T12:18:47;102680.63;;;14.20;36.98
17649;BME280;8943;51.110;-4.158;2023-03-04T12:21:32;102685.66;;;14.26;36.91
17649;BME280;8943;51.110;-4.158;2023-03-04T12:24:26;102675.28;;;14.35;37.23
17649;BME280;8943;51.110;-4.158;2023-03-04T12:27:03;102669.44;;;14.43;37.04
17649;BME280;8943;51.110;-4.158;2023-03-04T12:29:44;102670.66;;;14.53;36.79
17649;BME280;8943;51.110;-4.158;2023-03-04T12:32:20;102678.44;;;14.58;36.41
17649;BME280;8943;51.110;-4.158;2023-03-04T12:35:08;102667.03;;;14.54;36.37
17649;BME280;8943;51.110;-4.158;2023-03-04T12:37:56;102666.97;;;14.40;36.43
17649;BME280;8943;51.110;-4.158;2023-03-04T12:40:37;102660.22;;;14.33;36.50
17649;BME280;8943;51.110;-4.158;2023-03-04T12:43:41;102655.00;;;14.30;36.54
17649;BME280;8943;51.110;-4.158;2023-03-04T12:46:24;102653.81;;;14.20;36.41
17649;BME280;8943;51.110;-4.158;2023-03-04T12:49:08;102649.41;;;14.18;36.80
17649;BME280;8943;51.110;-4.158;2023-03-04T12:51:45;102650.28;;;14.19;36.78
17649;BME280;8943;51.110;-4.158;2023-03-04T12:54:21;102645.78;;;14.20;36.47
17649;BME280;8943;51.110;-4.158;2023-03-04T12:56:55;102632.84;;;14.12;36.45
17649;BME280;8943;51.110;-4.158;2023-03-04T12:59:25;102631.78;;;14.14;36.62
17649;BME280;8943;51.110;-4.158;2023-03-04T13:02:03;102629.03;;;14.16;36.38
17649;BME280;8943;51.110;-4.158;2023-03-04T13:04:45;102622.59;;;14.18;36.42
17649;BME280;8943;51.110;-4.158;2023-03-04T13:07:23;102623.31;;;14.22;36.83
17649;BME280;8943;51.110;-4.158;2023-03-04T13:10:03;102626.31;;;14.32;36.52